sensor_id;sensor_type;location;lat;lon;timestamp;temperature;humidity
23120;DHT22;11729;50.836;4.330;2023-04-06T00:00:57;10.90;87.60
23120;DHT22;11729;50.836;4.330;2023-04-06T00:03:23;11.00;87.90
23120;DHT22;11729;50.836;4.330;2023-04-06T00:05:49;11.00;88.10
23120;DHT22;11729;50.836;4.330;2023-04-06T00:08:16;10.90;88.50
23120;DHT22;11729;50.836;4.330;2023-04-06T00:10:41;10.90;89.10
23120;DHT22;11729;50.836;4.330;2023-04-06T00:13:07;10.80;89.60
23120;DHT22;11729;50.836;4.330;2023-04-06T00:15:33;10.90;89.70
23120;DHT22;11729;50.836;4.330;2023-04-06T00:18:00;10.90;89.30
23120;DHT22;11729;50.836;4.330;2023-04-06T00:20:27;10.90;90.00
23120;DHT22;11729;50.836;4.330;2023-04-06T00:22:52;10.90;89.80
23120;DHT22;11729;50.836;4.330;2023-04-06T00:25:19;10.90;90.10
23120;DHT22;11729;50.836;4.330;2023-04-06T00:27:45;11.00;90.10
23120;DHT22;11729;50.836;4.330;2023-04-06T00:30:10;11.10;90.30
23120;DHT22;11729;50.836;4.330;2023-04-06T00:32:36;11.00;90.50
23120;DHT22;11729;50.836;4.330;2023-04-06T00:35:03;10.90;90.60
23120;DHT22;11729;50.836;4.330;2023-04-06T00:37:29;10.80;91.70
23120;DHT22;11729;50.836;4.330;2023-04-06T00:39:54;10.70;91.90
23120;DHT22;11729;50.836;4.330;2023-04-06T00:42:21;10.80;92.10
23120;DHT22;11729;50.836;4.330;2023-04-06T00:44:59;10.80;92.00
23120;DHT22;11729;50.836;4.330;2023-04-06T00:47:25;10.90;91.90
23120;DHT22;11729;50.836;4.330;2023-04-06T00:49:52;10.90;92.10
23120;DHT22;11729;50.836;4.330;2023-04-06T00:52:19;10.80;92.40
23120;DHT22;11729;50.836;4.330;2023-04-06T00:54:45;10.70;92.90
23120;DHT22;11729;50.836;4.330;2023-04-06T00:57:14;10.60;93.00
23120;DHT22;11729;50.836;4.330;2023-04-06T00:59:40;10.70;93.30
23120;DHT22;11729;50.836;4.330;2023-04-06T01:02:06;10.60;93.20
23120;DHT22;11729;50.836;4.330;2023-04-06T01:04:32;10.50;93.50
23120;DHT22;11729;50.836;4.330;2023-04-06T01:07:00;10.50;93.50
23120;DHT22;11729;50.836;4.330;2023-04-06T01:09:27;10.30;93.70
23120;DHT22;11729;50.836;4.330;2023-04-06T01:11:54;10.40;93.80
23120;DHT22;11729;50.836;4.330;2023-04-06T01:14:21;10.50;94.30
23120;DHT22;11729;50.836;4.330;2023-04-06T01:16:46;10.50;94.10
23120;DHT22;11729;50.836;4.330;2023-04-06T01:19:13;10.50;94.10
23120;DHT22;11729;50.836;4.330;2023-04-06T01:21:41;10.40;94.30
23120;DHT22;11729;50.836;4.330;2023-04-06T01:24:07;10.50;94.60
23120;DHT22;11729;50.836;4.330;2023-04-06T01:26:34;10.60;94.40
23120;DHT22;11729;50.836;4.330;2023-04-06T01:29:00;10.50;94.00
23120;DHT22;11729;50.836;4.330;2023-04-06T01:31:27;10.50;94.60
23120;DHT22;11729;50.836;4.330;2023-04-06T01:33:53;10.50;94.40
23120;DHT22;11729;50.836;4.330;2023-04-06T01:36:19;10.40;94.50
23120;DHT22;11729;50.836;4.330;2023-04-06T01:38:45;10.50;94.70
23120;DHT22;11729;50.836;4.330;2023-04-06T01:41:11;10.40;94.90
23120;DHT22;11729;50.836;4.330;2023-04-06T01:43:36;10.30;95.00
23120;DHT22;11729;50.836;4.330;2023-04-06T01:46:02;10.20;95.30
23120;DHT22;11729;50.836;4.330;2023-04-06T01:48:28;10.20;95.60
23120;DHT22;11729;50.836;4.330;2023-04-06T01:50:54;10.20;95.40
23120;DHT22;11729;50.836;4.330;2023-04-06T01:53:20;10.20;95.80
23120;DHT22;11729;50.836;4.330;2023-04-06T01:55:46;10.10;96.40
23120;DHT22;11729;50.836;4.330;2023-04-06T01:58:12;10.00;96.60
23120;DHT22;11729;50.836;4.330;2023-04-06T02:00:38;9.90;97.00
23120;DHT22;11729;50.836;4.330;2023-04-06T02:03:04;9.90;97.30
23120;DHT22;11729;50.836;4.330;2023-04-06T02:05:32;9.80;98.00
23120;DHT22;11729;50.836;4.330;2023-04-06T02:08:05;9.90;98.20
23120;DHT22;11729;50.836;4.330;2023-04-06T02:10:32;9.80;98.10
23120;DHT22;11729;50.836;4.330;2023-04-06T02:12:58;9.90;98.30
23120;DHT22;11729;50.836;4.330;2023-04-06T02:15:23;9.90;98.40
23120;DHT22;11729;50.836;4.330;2023-04-06T02:17:50;10.00;98.60
23120;DHT22;11729;50.836;4.330;2023-04-06T02:20:16;9.90;98.90
23120;DHT22;11729;50.836;4.330;2023-04-06T02:22:41;9.80;99.00
23120;DHT22;11729;50.836;4.330;2023-04-06T02:25:07;9.70;98.80
23120;DHT22;11729;50.836;4.330;2023-04-06T02:27:33;9.60;99.10
23120;DHT22;11729;50.836;4.330;2023-04-06T02:29:58;9.70;98.90
23120;DHT22;11729;50.836;4.330;2023-04-06T02:32:24;9.60;99.20
23120;DHT22;11729;50.836;4.330;2023-04-06T02:34:51;9.70;99.50
23120;DHT22;11729;50.836;4.330;2023-04-06T02:37:17;9.60;99.90
23120;DHT22;11729;50.836;4.330;2023-04-06T02:39:42;9.70;99.90
23120;DHT22;11729;50.836;4.330;2023-04-06T02:42:08;9.80;99.90
23120;DHT22;11729;50.836;4.330;2023-04-06T02:44:34;9.80;99.90
23120;DHT22;11729;50.836;4.330;2023-04-06T02:47:00;9.70;99.90
23120;DHT22;11729;50.836;4.330;2023-04-06T02:49:27;9.60;99.90
23120;DHT22;11729;50.836;4.330;2023-04-06T02:51:53;9.60;99.90
23120;DHT22;11729;50.836;4.330;2023-04-06T02:54:24;9.50;99.90
23120;DHT22;11729;50.836;4.330;2023-04-06T02:56:50;9.60;99.90
23120;DHT22;11729;50.836;4.330;2023-04-06T02:59:16;9.60;99.90
23120;DHT22;11729;50.836;4.330;2023-04-06T03:01:48;9.70;99.90
23120;DHT22;11729;50.836;4.330;2023-04-06T03:04:17;9.70;99.90
23120;DHT22;11729;50.836;4.330;2023-04-06T03:06:42;9.70;99.90
23120;DHT22;11729;50.836;4.330;2023-04-06T03:09:08;9.70;99.50
23120;DHT22;11729;50.836;4.330;2023-04-06T03:11:34;9.70;99.70
23120;DHT22;11729;50.836;4.330;2023-04-06T03:14:00;9.80;99.70
23120;DHT22;11729;50.836;4.330;2023-04-06T03:16:26;9.70;99.90
23120;DHT22;11729;50.836;4.330;2023-04-06T03:18:51;9.70;99.90
23120;DHT22;11729;50.836;4.330;2023-04-06T03:21:18;9.60;99.90
23120;DHT22;11729;50.836;4.330;2023-04-06T03:23:44;9.70;99.90
23120;DHT22;11729;50.836;4.330;2023-04-06T03:26:10;9.70;99.90
23120;DHT22;11729;50.836;4.330;2023-04-06T03:28:36;9.70;99.90
23120;DHT22;11729;50.836;4.330;2023-04-06T03:31:02;9.70;99.90
23120;DHT22;11729;50.836;4.330;2023-04-06T03:33:29;9.70;99.90
23120;DHT22;11729;50.836;4.330;2023-04-06T03:35:54;9.60;99.90
23120;DHT22;11729;50.836;4.330;2023-04-06T03:38:20;9.50;99.90
23120;DHT22;11729;50.836;4.330;2023-04-06T03:40:46;9.50;99.90
23120;DHT22;11729;50.836;4.330;2023-04-06T03:43:13;9.50;99.90
23120;DHT22;11729;50.836;4.330;2023-04-06T03:45:38;9.60;99.90
23120;DHT22;11729;50.836;4.330;2023-04-06T03:48:05;9.60;99.90
23120;DHT22;11729;50.836;4.330;2023-04-06T03:50:31;9.50;99.90
23120;DHT22;11729;50.836;4.330;2023-04-06T03:52:56;9.50;99.90
23120;DHT22;11729;50.836;4.330;2023-04-06T03:55:22;9.40;99.90
23120;DHT22;11729;50.836;4.330;2023-04-06T03:57:48;9.50;99.90
23120;DHT22;11729;50.836;4.330;2023-04-06T04:00:14;9.50;99.90
23120;DHT22;11729;50.836;4.330;2023-04-06T04:02:40;9.60;99.90
23120;DHT22;11729;50.836;4.330;2023-04-06T04:05:06;9.60;99.90
23120;DHT22;11729;50.836;4.330;2023-04-06T04:07:31;9.70;99.90
23120;DHT22;11729;50.836;4.330;2023-04-06T04:09:57;9.60;99.90
23120;DHT22;11729;50.836;4.330;2023-04-06T04:12:22;9.70;99.90
23120;DHT22;11729;50.836;4.330;2023-04-06T04:14:48;9.50;99.90
23120;DHT22;11729;50.836;4.330;2023-04-06T04:17:14;9.50;99.90
23120;DHT22;11729;50.836;4.330;2023-04-06T04:19:39;9.60;99.90
23120;DHT22;11729;50.836;4.330;2023-04-06T04:22:05;9.60;99.90
23120;DHT22;11729;50.836;4.330;2023-04-06T04:24:32;9.70;99.90
23120;DHT22;11729;50.836;4.330;2023-04-06T04:26:57;9.80;99.90
23120;DHT22;11729;50.836;4.330;2023-04-06T04:29:23;9.80;99.90
23120;DHT22;11729;50.836;4.330;2023-04-06T04:31:49;9.70;99.90
23120;DHT22;11729;50.836;4.330;2023-04-06T04:34:15;9.70;99.90
23120;DHT22;11729;50.836;4.330;2023-04-06T04:36:41;9.70;99.90
23120;DHT22;11729;50.836;4.330;2023-04-06T04:39:09;9.80;99.90
23120;DHT22;11729;50.836;4.330;2023-04-06T04:41:36;9.80;99.90
23120;DHT22;11729;50.836;4.330;2023-04-06T04:44:02;9.70;99.90
23120;DHT22;11729;50.836;4.330;2023-04-06T04:46:27;9.70;99.90
23120;DHT22;11729;50.836;4.330;2023-04-06T04:48:53;9.70;99.90
23120;DHT22;11729;50.836;4.330;2023-04-06T04:51:18;9.80;99.90
23120;DHT22;11729;50.836;4.330;2023-04-06T04:53:51;9.80;99.90
23120;DHT22;11729;50.836;4.330;2023-04-06T04:56:17;9.90;99.90
23120;DHT22;11729;50.836;4.330;2023-04-06T04:58:42;9.80;99.90
23120;DHT22;11729;50.836;4.330;2023-04-06T05:01:17;9.90;99.90
23120;DHT22;11729;50.836;4.330;2023-04-06T05:03:51;9.90;99.90
23120;DHT22;11729;50.836;4.330;2023-04-06T05:06:17;9.90;99.90
23120;DHT22;11729;50.836;4.330;2023-04-06T05:08:44;9.90;99.90
23120;DHT22;11729;50.836;4.330;2023-04-06T05:11:10;9.90;99.90
23120;DHT22;11729;50.836;4.330;2023-04-06T05:13:37;9.90;99.90
23120;DHT22;11729;50.836;4.330;2023-04-06T05:16:03;9.90;99.90
23120;DHT22;11729;50.836;4.330;2023-04-06T05:18:29;9.90;99.90
23120;DHT22;11729;50.836;4.330;2023-04-06T05:20:55;9.90;99.90
23120;DHT22;11729;50.836;4.330;2023-04-06T05:23:21;9.80;99.90
23120;DHT22;11729;50.836;4.330;2023-04-06T05:25:46;9.80;99.90
23120;DHT22;11729;50.836;4.330;2023-04-06T05:28:12;9.80;99.90
23120;DHT22;11729;50.836;4.330;2023-04-06T05:30:39;9.80;99.90
23120;DHT22;11729;50.836;4.330;2023-04-06T05:33:05;9.80;99.90
23120;DHT22;11729;50.836;4.330;2023-04-06T05:35:31;9.90;99.90
23120;DHT22;11729;50.836;4.330;2023-04-06T05:37:56;10.00;99.90
23120;DHT22;11729;50.836;4.330;2023-04-06T05:40:22;10.10;99.90
23120;DHT22;11729;50.836;4.330;2023-04-06T05:42:47;10.10;99.90
23120;DHT22;11729;50.836;4.330;2023-04-06T05:45:14;10.10;99.90
23120;DHT22;11729;50.836;4.330;2023-04-06T05:47:42;10.10;99.90
23120;DHT22;11729;50.836;4.330;2023-04-06T05:50:10;10.00;99.90
23120;DHT22;11729;50.836;4.330;2023-04-06T05:52:36;10.00;99.90
23120;DHT22;11729;50.836;4.330;2023-04-06T05:55:02;10.00;99.90
23120;DHT22;11729;50.836;4.330;2023-04-06T05:57:28;10.00;99.90
23120;DHT22;11729;50.836;4.330;2023-04-06T05:59:55;10.10;99.90
23120;DHT22;11729;50.836;4.330;2023-04-06T06:02:21;10.20;99.90
23120;DHT22;11729;50.836;4.330;2023-04-06T06:04:47;10.10;99.90
23120;DHT22;11729;50.836;4.330;2023-04-06T06:07:14;10.20;99.90
23120;DHT22;11729;50.836;4.330;2023-04-06T06:09:40;10.20;99.90
23120;DHT22;11729;50.836;4.330;2023-04-06T06:12:06;10.30;99.90
23120;DHT22;11729;50.836;4.330;2023-04-06T06:14:31;10.40;99.90
23120;DHT22;11729;50.836;4.330;2023-04-06T06:16:57;10.40;99.90
23120;DHT22;11729;50.836;4.330;2023-04-06T06:19:23;10.40;99.90
23120;DHT22;11729;50.836;4.330;2023-04-06T06:21:48;10.40;99.90
23120;DHT22;11729;50.836;4.330;2023-04-06T06:24:14;10.50;99.90
23120;DHT22;11729;50.836;4.330;2023-04-06T06:26:40;10.30;99.90
23120;DHT22;11729;50.836;4.330;2023-04-06T06:29:06;10.30;99.90
23120;DHT22;11729;50.836;4.330;2023-04-06T06:31:33;10.10;99.90
23120;DHT22;11729;50.836;4.330;2023-04-06T06:33:59;10.00;99.90
23120;DHT22;11729;50.836;4.330;2023-04-06T06:36:25;10.00;99.90
23120;DHT22;11729;50.836;4.330;2023-04-06T06:38:51;9.90;99.90
23120;DHT22;11729;50.836;4.330;2023-04-06T06:41:17;9.80;99.90
23120;DHT22;11729;50.836;4.330;2023-04-06T06:43:43;9.60;99.90
23120;DHT22;11729;50.836;4.330;2023-04-06T06:46:10;9.50;99.90
23120;DHT22;11729;50.836;4.330;2023-04-06T06:48:36;9.30;99.90
23120;DHT22;11729;50.836;4.330;2023-04-06T06:51:02;9.60;99.90
23120;DHT22;11729;50.836;4.330;2023-04-06T06:53:28;9.60;99.90
23120;DHT22;11729;50.836;4.330;2023-04-06T06:55:54;9.80;99.90
23120;DHT22;11729;50.836;4.330;2023-04-06T06:58:19;9.80;99.90
23120;DHT22;11729;50.836;4.330;2023-04-06T07:00:45;9.70;99.90
23120;DHT22;11729;50.836;4.330;2023-04-06T07:03:11;9.60;99.90
23120;DHT22;11729;50.836;4.330;2023-04-06T07:05:37;9.70;99.90
23120;DHT22;11729;50.836;4.330;2023-04-06T07:08:04;9.70;99.90
23120;DHT22;11729;50.836;4.330;2023-04-06T07:10:30;9.70;99.90
23120;DHT22;11729;50.836;4.330;2023-04-06T07:12:56;9.60;99.90
23120;DHT22;11729;50.836;4.330;2023-04-06T07:15:21;9.60;99.90
23120;DHT22;11729;50.836;4.330;2023-04-06T07:17:47;9.70;99.90
23120;DHT22;11729;50.836;4.330;2023-04-06T07:20:13;9.70;99.90
23120;DHT22;11729;50.836;4.330;2023-04-06T07:22:42;9.60;99.90
23120;DHT22;11729;50.836;4.330;2023-04-06T07:25:12;9.60;99.90
23120;DHT22;11729;50.836;4.330;2023-04-06T07:27:38;9.50;99.90
23120;DHT22;11729;50.836;4.330;2023-04-06T07:30:07;9.50;99.90
23120;DHT22;11729;50.836;4.330;2023-04-06T07:32:33;9.50;99.90
23120;DHT22;11729;50.836;4.330;2023-04-06T07:35:01;9.50;99.90
23120;DHT22;11729;50.836;4.330;2023-04-06T07:37:27;9.50;99.90
23120;DHT22;11729;50.836;4.330;2023-04-06T07:39:52;9.50;99.90
23120;DHT22;11729;50.836;4.330;2023-04-06T07:42:18;9.50;99.90
23120;DHT22;11729;50.836;4.330;2023-04-06T07:44:44;9.50;99.90
23120;DHT22;11729;50.836;4.330;2023-04-06T07:47:12;9.40;99.90
23120;DHT22;11729;50.836;4.330;2023-04-06T07:49:38;9.40;99.90
23120;DHT22;11729;50.836;4.330;2023-04-06T07:52:04;9.40;99.90
23120;DHT22;11729;50.836;4.330;2023-04-06T07:54:29;9.50;99.90
23120;DHT22;11729;50.836;4.330;2023-04-06T07:56:55;9.50;99.90
23120;DHT22;11729;50.836;4.330;2023-04-06T07:59:20;9.50;99.90
23120;DHT22;11729;50.836;4.330;2023-04-06T08:01:46;9.50;99.90
23120;DHT22;11729;50.836;4.330;2023-04-06T08:04:12;9.60;99.90
23120;DHT22;11729;50.836;4.330;2023-04-06T08:06:37;9.70;99.90
23120;DHT22;11729;50.836;4.330;2023-04-06T08:09:03;9.60;99.90
23120;DHT22;11729;50.836;4.330;2023-04-06T08:11:29;9.50;99.90
23120;DHT22;11729;50.836;4.330;2023-04-06T08:13:55;9.40;99.90
23120;DHT22;11729;50.836;4.330;2023-04-06T08:16:24;9.40;99.90
23120;DHT22;11729;50.836;4.330;2023-04-06T08:18:50;9.50;99.90
23120;DHT22;11729;50.836;4.330;2023-04-06T08:21:18;9.60;99.90
23120;DHT22;11729;50.836;4.330;2023-04-06T08:23:43;9.30;99.90
23120;DHT22;11729;50.836;4.330;2023-04-06T08:26:09;9.30;99.90
23120;DHT22;11729;50.836;4.330;2023-04-06T08:28:35;9.20;99.90
23120;DHT22;11729;50.836;4.330;2023-04-06T08:31:06;9.10;99.90
23120;DHT22;11729;50.836;4.330;2023-04-06T08:33:33;9.10;99.90
23120;DHT22;11729;50.836;4.330;2023-04-06T08:36:12;9.20;99.90
23120;DHT22;11729;50.836;4.330;2023-04-06T08:38:39;9.10;99.90
23120;DHT22;11729;50.836;4.330;2023-04-06T08:41:12;9.10;99.90
23120;DHT22;11729;50.836;4.330;2023-04-06T08:44:00;9.10;99.90
23120;DHT22;11729;50.836;4.330;2023-04-06T08:46:27;9.10;99.90
23120;DHT22;11729;50.836;4.330;2023-04-06T08:48:58;9.20;99.90
23120;DHT22;11729;50.836;4.330;2023-04-06T08:51:24;9.10;99.90
23120;DHT22;11729;50.836;4.330;2023-04-06T08:53:54;9.00;99.90
23120;DHT22;11729;50.836;4.330;2023-04-06T08:56:22;9.00;99.90
23120;DHT22;11729;50.836;4.330;2023-04-06T08:58:48;8.80;99.90
23120;DHT22;11729;50.836;4.330;2023-04-06T09:01:14;8.80;99.90
23120;DHT22;11729;50.836;4.330;2023-04-06T09:03:43;8.70;99.90
23120;DHT22;11729;50.836;4.330;2023-04-06T09:06:09;8.70;99.90
23120;DHT22;11729;50.836;4.330;2023-04-06T09:08:38;8.70;99.90
23120;DHT22;11729;50.836;4.330;2023-04-06T09:11:04;8.70;99.90
23120;DHT22;11729;50.836;4.330;2023-04-06T09:13:30;8.60;99.90
23120;DHT22;11729;50.836;4.330;2023-04-06T09:16:02;8.50;99.90
23120;DHT22;11729;50.836;4.330;2023-04-06T09:18:30;8.60;99.90
23120;DHT22;11729;50.836;4.330;2023-04-06T09:21:01;8.60;99.90
23120;DHT22;11729;50.836;4.330;2023-04-06T09:23:27;8.70;99.90
23120;DHT22;11729;50.836;4.330;2023-04-06T09:26:05;8.60;99.90
23120;DHT22;11729;50.836;4.330;2023-04-06T09:31:13;8.60;99.90
23120;DHT22;11729;50.836;4.330;2023-04-06T09:33:45;8.60;99.90
23120;DHT22;11729;50.836;4.330;2023-04-06T09:36:11;8.50;99.90
23120;DHT22;11729;50.836;4.330;2023-04-06T09:38:54;8.60;99.90
23120;DHT22;11729;50.836;4.330;2023-04-06T09:41:24;8.60;99.90
23120;DHT22;11729;50.836;4.330;2023-04-06T09:44:03;8.60;99.90
23120;DHT22;11729;50.836;4.330;2023-04-06T09:46:32;8.60;99.90
23120;DHT22;11729;50.836;4.330;2023-04-06T09:49:01;8.70;99.90
23120;DHT22;11729;50.836;4.330;2023-04-06T09:51:30;8.70;99.90
23120;DHT22;11729;50.836;4.330;2023-04-06T09:53:57;8.60;99.90
23120;DHT22;11729;50.836;4.330;2023-04-06T09:56:28;8.60;99.90
23120;DHT22;11729;50.836;4.330;2023-04-06T09:59:02;8.70;99.90
23120;DHT22;11729;50.836;4.330;2023-04-06T10:01:29;8.80;99.90
23120;DHT22;11729;50.836;4.330;2023-04-06T10:04:19;8.70;99.90
23120;DHT22;11729;50.836;4.330;2023-04-06T10:06:47;8.60;99.90
23120;DHT22;11729;50.836;4.330;2023-04-06T10:09:18;8.60;99.90
23120;DHT22;11729;50.836;4.330;2023-04-06T10:11:47;8.90;99.90
23120;DHT22;11729;50.836;4.330;2023-04-06T10:14:15;8.90;99.90
23120;DHT22;11729;50.836;4.330;2023-04-06T10:16:42;8.90;99.90
23120;DHT22;11729;50.836;4.330;2023-04-06T10:19:16;9.00;99.90
23120;DHT22;11729;50.836;4.330;2023-04-06T10:21:44;9.20;99.90
23120;DHT22;11729;50.836;4.330;2023-04-06T10:24:12;9.20;99.90
23120;DHT22;11729;50.836;4.330;2023-04-06T10:26:38;9.20;99.90
23120;DHT22;11729;50.836;4.330;2023-04-06T10:29:04;9.20;99.90
23120;DHT22;11729;50.836;4.330;2023-04-06T10:31:30;9.20;99.90
23120;DHT22;11729;50.836;4.330;2023-04-06T10:33:57;9.10;99.90
23120;DHT22;11729;50.836;4.330;2023-04-06T10:36:33;9.30;99.90
23120;DHT22;11729;50.836;4.330;2023-04-06T10:39:01;9.40;99.90
23120;DHT22;11729;50.836;4.330;2023-04-06T10:43:59;9.50;99.90
23120;DHT22;11729;50.836;4.330;2023-04-06T10:46:28;9.60;99.90
23120;DHT22;11729;50.836;4.330;2023-04-06T10:48:54;9.60;99.90
23120;DHT22;11729;50.836;4.330;2023-04-06T10:51:24;9.50;99.90
23120;DHT22;11729;50.836;4.330;2023-04-06T10:53:53;9.50;99.90
23120;DHT22;11729;50.836;4.330;2023-04-06T10:56:23;9.40;99.90
23120;DHT22;11729;50.836;4.330;2023-04-06T10:58:51;9.40;99.90
23120;DHT22;11729;50.836;4.330;2023-04-06T11:01:18;9.40;99.90
23120;DHT22;11729;50.836;4.330;2023-04-06T11:03:44;9.40;99.90
23120;DHT22;11729;50.836;4.330;2023-04-06T11:06:10;9.40;99.90
23120;DHT22;11729;50.836;4.330;2023-04-06T11:08:36;9.70;99.90
23120;DHT22;11729;50.836;4.330;2023-04-06T11:13:45;10.00;99.90
23120;DHT22;11729;50.836;4.330;2023-04-06T11:16:34;10.20;99.90
23120;DHT22;11729;50.836;4.330;2023-04-06T11:24:12;10.20;99.90
23120;DHT22;11729;50.836;4.330;2023-04-06T11:26:44;10.20;99.90
23120;DHT22;11729;50.836;4.330;2023-04-06T11:29:11;10.20;99.90
23120;DHT22;11729;50.836;4.330;2023-04-06T11:31:45;10.00;99.90
23120;DHT22;11729;50.836;4.330;2023-04-06T11:34:32;10.10;99.90
23120;DHT22;11729;50.836;4.330;2023-04-06T11:36:59;10.00;99.90
23120;DHT22;11729;50.836;4.330;2023-04-06T11:39:26;10.00;99.90
23120;DHT22;11729;50.836;4.330;2023-04-06T11:42:02;10.20;99.90
23120;DHT22;11729;50.836;4.330;2023-04-06T11:47:01;10.30;99.90
23120;DHT22;11729;50.836;4.330;2023-04-06T11:49:31;10.30;99.90
23120;DHT22;11729;50.836;4.330;2023-04-06T11:51:58;10.40;99.90
23120;DHT22;11729;50.836;4.330;2023-04-06T11:56:56;10.50;99.90
23120;DHT22;11729;50.836;4.330;2023-04-06T11:59:21;10.50;99.90
23120;DHT22;11729;50.836;4.330;2023-04-06T12:01:48;10.50;99.90
23120;DHT22;11729;50.836;4.330;2023-04-06T12:04:14;10.30;99.90
23120;DHT22;11729;50.836;4.330;2023-04-06T12:06:40;10.40;99.90
23120;DHT22;11729;50.836;4.330;2023-04-06T12:09:06;10.30;99.90
23120;DHT22;11729;50.836;4.330;2023-04-06T12:11:32;10.40;99.90
23120;DHT22;11729;50.836;4.330;2023-04-06T12:13:57;10.40;99.90
23120;DHT22;11729;50.836;4.330;2023-04-06T12:16:24;10.50;99.90
23120;DHT22;11729;50.836;4.330;2023-04-06T12:18:51;10.60;99.90
23120;DHT22;11729;50.836;4.330;2023-04-06T12:21:16;10.60;99.90
23120;DHT22;11729;50.836;4.330;2023-04-06T12:23:42;10.70;99.90
23120;DHT22;11729;50.836;4.330;2023-04-06T12:26:08;10.60;99.90
23120;DHT22;11729;50.836;4.330;2023-04-06T12:28:33;10.20;99.90
23120;DHT22;11729;50.836;4.330;2023-04-06T12:30:59;10.20;99.90
23120;DHT22;11729;50.836;4.330;2023-04-06T12:33:25;10.30;99.90
23120;DHT22;11729;50.836;4.330;2023-04-06T12:35:51;10.20;99.90
23120;DHT22;11729;50.836;4.330;2023-04-06T12:38:16;10.10;99.90
23120;DHT22;11729;50.836;4.330;2023-04-06T12:40:42;10.10;99.90
23120;DHT22;11729;50.836;4.330;2023-04-06T12:43:08;10.00;99.90
23120;DHT22;11729;50.836;4.330;2023-04-06T12:45:35;9.90;99.90
23120;DHT22;11729;50.836;4.330;2023-04-06T12:48:01;9.90;99.90
23120;DHT22;11729;50.836;4.330;2023-04-06T12:50:27;10.00;99.90
23120;DHT22;11729;50.836;4.330;2023-04-06T12:52:52;10.00;99.90
23120;DHT22;11729;50.836;4.330;2023-04-06T12:55:18;10.00;99.90
23120;DHT22;11729;50.836;4.330;2023-04-06T12:57:45;10.00;99.90
23120;DHT22;11729;50.836;4.330;2023-04-06T13:00:11;10.00;99.90
23120;DHT22;11729;50.836;4.330;2023-04-06T13:02:36;10.00;99.90
23120;DHT22;11729;50.836;4.330;2023-04-06T13:05:02;10.20;99.90
23120;DHT22;11729;50.836;4.330;2023-04-06T13:07:28;10.00;99.90
23120;DHT22;11729;50.836;4.330;2023-04-06T13:09:54;10.00;99.90
23120;DHT22;11729;50.836;4.330;2023-04-06T13:12:20;10.00;99.90
23120;DHT22;11729;50.836;4.330;2023-04-06T13:14:46;10.00;99.90
23120;DHT22;11729;50.836;4.330;2023-04-06T13:17:16;9.90;99.90
23120;DHT22;11729;50.836;4.330;2023-04-06T13:19:43;9.80;99.90
23120;DHT22;11729;50.836;4.330;2023-04-06T13:22:08;9.80;99.90
23120;DHT22;11729;50.836;4.330;2023-04-06T13:24:34;9.80;99.90
23120;DHT22;11729;50.836;4.330;2023-04-06T13:27:01;9.90;99.90
23120;DHT22;11729;50.836;4.330;2023-04-06T13:29:26;10.00;99.90
23120;DHT22;11729;50.836;4.330;2023-04-06T13:31:52;10.10;99.90
23120;DHT22;11729;50.836;4.330;2023-04-06T13:34:18;10.10;99.90
23120;DHT22;11729;50.836;4.330;2023-04-06T13:36:44;10.20;99.90
23120;DHT22;11729;50.836;4.330;2023-04-06T13:39:09;10.30;99.90
23120;DHT22;11729;50.836;4.330;2023-04-06T13:41:36;10.20;99.90
23120;DHT22;11729;50.836;4.330;2023-04-06T13:44:02;10.20;99.90
23120;DHT22;11729;50.836;4.330;2023-04-06T13:46:31;10.10;99.90
23120;DHT22;11729;50.836;4.330;2023-04-06T13:48:57;10.00;99.90
23120;DHT22;11729;50.836;4.330;2023-04-06T13:51:23;10.10;99.90
23120;DHT22;11729;50.836;4.330;2023-04-06T13:53:51;10.10;99.90
23120;DHT22;11729;50.836;4.330;2023-04-06T13:56:17;10.20;99.90
23120;DHT22;11729;50.836;4.330;2023-04-06T13:58:43;10.20;99.90
23120;DHT22;11729;50.836;4.330;2023-04-06T14:01:09;10.20;99.90
23120;DHT22;11729;50.836;4.330;2023-04-06T14:03:35;10.30;99.90
23120;DHT22;11729;50.836;4.330;2023-04-06T14:06:01;10.20;99.90
23120;DHT22;11729;50.836;4.330;2023-04-06T14:08:34;10.30;99.90
23120;DHT22;11729;50.836;4.330;2023-04-06T14:11:00;10.30;99.90
23120;DHT22;11729;50.836;4.330;2023-04-06T14:13:28;10.30;99.90
23120;DHT22;11729;50.836;4.330;2023-04-06T14:15:54;10.40;99.90
23120;DHT22;11729;50.836;4.330;2023-04-06T14:18:21;10.40;99.90
23120;DHT22;11729;50.836;4.330;2023-04-06T14:20:57;10.40;99.90
23120;DHT22;11729;50.836;4.330;2023-04-06T14:23:24;10.30;99.90
23120;DHT22;11729;50.836;4.330;2023-04-06T14:26:06;10.30;99.90
23120;DHT22;11729;50.836;4.330;2023-04-06T14:28:37;10.40;99.90
23120;DHT22;11729;50.836;4.330;2023-04-06T14:31:10;10.50;99.90
23120;DHT22;11729;50.836;4.330;2023-04-06T14:33:41;10.40;99.90
23120;DHT22;11729;50.836;4.330;2023-04-06T14:36:10;10.40;99.90
23120;DHT22;11729;50.836;4.330;2023-04-06T14:38:41;10.40;99.90
23120;DHT22;11729;50.836;4.330;2023-04-06T14:41:14;10.40;99.90
23120;DHT22;11729;50.836;4.330;2023-04-06T14:43:40;10.50;99.90
23120;DHT22;11729;50.836;4.330;2023-04-06T14:46:07;10.50;99.90
23120;DHT22;11729;50.836;4.330;2023-04-06T14:48:35;10.60;99.90
23120;DHT22;11729;50.836;4.330;2023-04-06T14:51:00;10.60;99.90
23120;DHT22;11729;50.836;4.330;2023-04-06T14:53:26;10.60;99.90
23120;DHT22;11729;50.836;4.330;2023-04-06T14:55:53;10.80;99.90
23120;DHT22;11729;50.836;4.330;2023-04-06T14:58:19;10.90;99.90
23120;DHT22;11729;50.836;4.330;2023-04-06T15:00:46;11.10;99.90
23120;DHT22;11729;50.836;4.330;2023-04-06T15:03:12;11.00;99.90
23120;DHT22;11729;50.836;4.330;2023-04-06T15:05:37;10.80;99.90
23120;DHT22;11729;50.836;4.330;2023-04-06T15:08:06;10.80;99.90
23120;DHT22;11729;50.836;4.330;2023-04-06T15:10:35;10.60;99.90
23120;DHT22;11729;50.836;4.330;2023-04-06T15:13:03;10.60;99.90
23120;DHT22;11729;50.836;4.330;2023-04-06T15:15:29;10.80;99.90
23120;DHT22;11729;50.836;4.330;2023-04-06T15:17:54;10.80;99.90
23120;DHT22;11729;50.836;4.330;2023-04-06T15:20:20;10.90;99.90
23120;DHT22;11729;50.836;4.330;2023-04-06T15:22:46;11.00;99.90
23120;DHT22;11729;50.836;4.330;2023-04-06T15:25:11;11.10;99.90
23120;DHT22;11729;50.836;4.330;2023-04-06T15:27:38;11.20;99.90
23120;DHT22;11729;50.836;4.330;2023-04-06T15:30:04;11.20;99.90
23120;DHT22;11729;50.836;4.330;2023-04-06T15:32:29;11.30;99.90
23120;DHT22;11729;50.836;4.330;2023-04-06T15:34:59;11.30;99.90
23120;DHT22;11729;50.836;4.330;2023-04-06T15:37:25;11.30;99.90
23120;DHT22;11729;50.836;4.330;2023-04-06T15:39:53;11.40;99.90
23120;DHT22;11729;50.836;4.330;2023-04-06T15:42:20;11.30;99.90
23120;DHT22;11729;50.836;4.330;2023-04-06T15:44:45;11.30;99.90
23120;DHT22;11729;50.836;4.330;2023-04-06T15:47:11;11.30;99.90
23120;DHT22;11729;50.836;4.330;2023-04-06T15:49:36;11.40;99.90
23120;DHT22;11729;50.836;4.330;2023-04-06T15:52:02;11.30;99.90
23120;DHT22;11729;50.836;4.330;2023-04-06T15:54:27;11.30;99.90
23120;DHT22;11729;50.836;4.330;2023-04-06T15:56:53;11.30;99.90